createdAt,value
2023-10-11T00:00:27.913Z,94.6
2023-10-11T00:01:58.360Z,94.6
2023-10-11T00:03:29.465Z,94.9
2023-10-11T00:05:00.328Z,94.9
2023-10-11T00:06:30.841Z,94.9
2023-10-11T00:08:01.244Z,94.9
2023-10-11T00:09:31.771Z,94.8
2023-10-11T00:11:02.643Z,94.9
2023-10-11T00:12:33.118Z,95
2023-10-11T00:14:03.532Z,95.1
2023-10-11T00:15:33.976Z,94.9
2023-10-11T00:17:04.375Z,94.8
2023-10-11T00:18:35.034Z,94.7
2023-10-11T00:20:05.675Z,94.8
2023-10-11T00:21:36.152Z,94.8
2023-10-11T00:23:06.567Z,94.7
2023-10-11T00:24:37.009Z,94.8
2023-10-11T00:26:07.521Z,94.8
2023-10-11T00:27:37.937Z,94.9
2023-10-11T00:29:08.365Z,94.6
2023-10-11T00:30:39.002Z,94.7
2023-10-11T00:32:09.594Z,94.8
2023-10-11T00:33:41.185Z,94.8
2023-10-11T00:35:11.958Z,94.9
2023-10-11T00:36:42.400Z,94.8
2023-10-11T00:38:12.931Z,94.9
2023-10-11T00:39:43.366Z,94.8
2023-10-11T00:41:13.918Z,94.8
2023-10-11T00:41:31.037Z,94.8
2023-10-11T00:43:01.665Z,95
2023-10-11T00:44:32.205Z,94.9
2023-10-11T00:46:03.381Z,95.1
2023-10-11T00:47:34.008Z,94.8
2023-10-11T00:49:04.488Z,95.1
2023-10-11T00:50:35.066Z,95.1
2023-10-11T00:52:05.623Z,94.9
2023-10-11T00:53:36.282Z,94.9
2023-10-11T00:55:06.881Z,94.8
2023-10-11T00:56:37.662Z,94.8
2023-10-11T00:58:08.143Z,94.8
2023-10-11T00:59:38.728Z,94.8
2023-10-11T01:01:09.165Z,95.1
2023-10-11T01:02:43.898Z,95.1
2023-10-11T01:04:15.330Z,95
2023-10-11T01:05:46.143Z,94.8
2023-10-11T01:07:16.621Z,95.1
2023-10-11T01:08:47.200Z,94.9
2023-10-11T01:10:17.732Z,94.8
2023-10-11T01:11:48.974Z,94.9
2023-10-11T01:13:19.714Z,95
2023-10-11T01:14:50.282Z,95
2023-10-11T01:16:20.805Z,94.7
2023-10-11T01:17:51.575Z,95
2023-10-11T01:19:22.331Z,94.9
2023-10-11T01:20:52.945Z,94.7
2023-10-11T01:22:23.566Z,94.9
2023-10-11T01:23:54.134Z,94.7
2023-10-11T01:25:24.688Z,95
2023-10-11T01:26:55.178Z,95.1
2023-10-11T01:28:25.640Z,95
2023-10-11T01:29:56.119Z,95.1
2023-10-11T01:31:26.684Z,95
2023-10-11T01:32:57.424Z,95.1
2023-10-11T01:34:28.084Z,94.9
2023-10-11T01:35:58.757Z,95
2023-10-11T01:37:29.290Z,95.1
2023-10-11T01:38:59.782Z,95
2023-10-11T01:40:30.236Z,95
2023-10-11T01:42:00.795Z,95.1
2023-10-11T01:43:31.260Z,94.9
2023-10-11T01:45:01.808Z,94.8
2023-10-11T01:46:32.456Z,95.1
2023-10-11T01:48:03.164Z,94.7
2023-10-11T01:49:33.772Z,94.8
2023-10-11T01:51:04.284Z,95.1
2023-10-11T01:52:34.872Z,94.8
2023-10-11T01:54:05.716Z,94.8
2023-10-11T01:55:36.171Z,95.2
2023-10-11T01:57:06.663Z,95.1
2023-10-11T01:58:37.355Z,95.1
2023-10-11T02:00:07.912Z,95
2023-10-11T02:03:23.398Z,95.2
2023-10-11T02:04:54.078Z,95.1
2023-10-11T02:06:24.791Z,95.2
2023-10-11T02:07:55.355Z,95.1
2023-10-11T02:09:26.034Z,95.2
2023-10-11T02:10:56.672Z,95.2
2023-10-11T02:12:27.200Z,95.3
2023-10-11T02:13:57.720Z,95.3
2023-10-11T02:15:28.379Z,95.2
2023-10-11T02:16:58.878Z,95.1
2023-10-11T02:18:29.497Z,95.3
2023-10-11T02:20:00.136Z,95.2
2023-10-11T02:21:31.168Z,94.9
2023-10-11T02:23:01.797Z,94.8
2023-10-11T02:24:32.292Z,94.9
2023-10-11T02:26:02.820Z,94.9
2023-10-11T02:27:33.349Z,94.9
2023-10-11T02:29:03.869Z,94.9
2023-10-11T02:30:34.389Z,95.2
2023-10-11T02:32:04.918Z,94.9
2023-10-11T02:33:35.764Z,94.9
2023-10-11T02:35:06.468Z,94.8
2023-10-11T02:36:37.048Z,94.6
2023-10-11T02:38:07.550Z,95.1
2023-10-11T02:39:38.034Z,95
2023-10-11T02:41:08.567Z,94.9
2023-10-11T02:42:39.069Z,95
2023-10-11T02:44:09.592Z,95
2023-10-11T02:45:40.157Z,95
2023-10-11T02:47:11.310Z,95.2
2023-10-11T02:48:42.109Z,95
2023-10-11T02:50:12.621Z,95.3
2023-10-11T02:51:43.198Z,95
2023-10-11T02:53:13.657Z,95.1
2023-10-11T02:54:44.622Z,95.1
2023-10-11T02:56:15.106Z,95.1
2023-10-11T02:57:45.522Z,94.9
2023-10-11T02:59:16.075Z,95
2023-10-11T03:00:46.871Z,95.1
2023-10-11T03:02:17.690Z,95.1
2023-10-11T03:03:48.542Z,95.3
2023-10-11T03:05:19.270Z,95.1
2023-10-11T03:06:49.712Z,95
2023-10-11T03:08:20.226Z,95.1
2023-10-11T03:09:50.756Z,95.1
2023-10-11T03:11:21.255Z,95.1
2023-10-11T03:12:51.737Z,94.8
2023-10-11T03:14:22.208Z,94.9
2023-10-11T03:15:52.786Z,95
2023-10-11T03:17:23.246Z,95.1
2023-10-11T03:18:53.915Z,95.1
2023-10-11T03:20:24.387Z,95
2023-10-11T03:21:55.150Z,95
2023-10-11T03:23:25.655Z,94.9
2023-10-11T03:24:56.922Z,95
2023-10-11T03:26:27.400Z,94.9
2023-10-11T03:27:57.835Z,95.1
2023-10-11T03:29:28.351Z,95.2
2023-10-11T03:30:58.809Z,95.2
2023-10-11T03:32:29.547Z,95.2
2023-10-11T03:34:00.139Z,94.9
2023-10-11T03:35:30.635Z,94.9
2023-10-11T03:37:01.129Z,95
2023-10-11T03:38:31.586Z,95
2023-10-11T03:40:02.045Z,94.7
2023-10-11T03:41:32.542Z,94.9
2023-10-11T03:43:03.048Z,95.1
2023-10-11T03:44:34.631Z,95.1
2023-10-11T03:46:06.974Z,95
2023-10-11T03:47:37.537Z,95.1
2023-10-11T03:49:08.120Z,94.9
2023-10-11T03:50:38.561Z,95.1
2023-10-11T03:52:09.080Z,95.2
2023-10-11T03:52:25.918Z,95.1
2023-10-11T03:53:56.416Z,95.1
2023-10-11T03:55:27.043Z,95
2023-10-11T03:56:57.513Z,95.3
2023-10-11T03:58:28.068Z,95
2023-10-11T03:59:58.590Z,94.9
2023-10-11T04:01:29.124Z,95
2023-10-11T04:03:00.465Z,95
2023-10-11T04:04:31.384Z,95.2
2023-10-11T04:06:01.925Z,95.3
2023-10-11T04:07:32.561Z,95.1
2023-10-11T04:09:03.006Z,94.9
2023-10-11T04:10:33.784Z,95.1
2023-10-11T04:12:04.258Z,94.8
2023-10-11T04:13:34.863Z,95
2023-10-11T04:15:05.442Z,95
2023-10-11T04:16:35.884Z,95
2023-10-11T04:18:06.381Z,95.2
2023-10-11T04:19:36.942Z,94.9
2023-10-11T04:21:07.501Z,95.1
2023-10-11T04:22:38.003Z,95
2023-10-11T04:24:08.878Z,95.2
2023-10-11T04:25:39.524Z,95.1
2023-10-11T04:27:10.000Z,95.2
2023-10-11T04:28:40.477Z,95
2023-10-11T04:30:10.981Z,95
2023-10-11T04:31:41.476Z,94.9
2023-10-11T04:33:12.023Z,95.1
2023-10-11T04:34:42.668Z,95.1
2023-10-11T04:36:13.150Z,95.2
2023-10-11T04:37:43.883Z,95.1
2023-10-11T04:39:14.420Z,95.1
2023-10-11T04:40:45.575Z,94.9
2023-10-11T04:42:16.098Z,95.2
2023-10-11T04:43:46.620Z,95.1
2023-10-11T04:45:17.072Z,95
2023-10-11T04:46:47.666Z,94.9
2023-10-11T04:48:18.270Z,95.1
2023-10-11T04:49:49.116Z,95.2
2023-10-11T04:51:19.609Z,95.1
2023-10-11T04:52:50.083Z,95.3
2023-10-11T04:54:20.532Z,95.2
2023-10-11T04:55:51.013Z,95
2023-10-11T04:57:21.598Z,95.1
2023-10-11T04:58:52.145Z,95.1
2023-10-11T05:00:22.682Z,95.1
2023-10-11T05:01:53.199Z,95.1
2023-10-11T05:03:23.836Z,95.2
2023-10-11T05:04:54.467Z,95.1
2023-10-11T05:06:25.040Z,95.2
2023-10-11T05:07:55.576Z,95.3
2023-10-11T05:09:26.117Z,95.4
2023-10-11T05:10:56.642Z,95.3
2023-10-11T05:12:27.129Z,95.2
2023-10-11T05:13:57.696Z,95.3
2023-10-11T05:15:28.172Z,95.3
2023-10-11T05:16:58.627Z,95
2023-10-11T05:18:29.250Z,94.9
2023-10-11T05:19:59.883Z,94.9
2023-10-11T05:21:30.369Z,95.2
2023-10-11T05:23:00.889Z,95.3
2023-10-11T05:24:31.360Z,95.2
2023-10-11T05:26:01.760Z,95.1
2023-10-11T05:27:32.183Z,95.3
2023-10-11T05:29:02.708Z,95.3
2023-10-11T05:30:33.212Z,95.2
2023-10-11T05:32:03.746Z,95.2
2023-10-11T05:33:34.263Z,95.4
2023-10-11T05:35:04.839Z,95.3
2023-10-11T05:36:35.316Z,95.4
2023-10-11T05:38:05.786Z,95.2
2023-10-11T05:39:36.283Z,95.3
2023-10-11T05:41:06.681Z,95.2
2023-10-11T05:41:23.572Z,95.3
2023-10-11T05:42:54.012Z,95.3
2023-10-11T05:44:24.415Z,95.4
2023-10-11T05:45:54.810Z,95.6
2023-10-11T05:47:25.274Z,95.3
2023-10-11T05:48:55.828Z,95.3
2023-10-11T05:50:26.310Z,95.4
2023-10-11T05:51:56.756Z,95.4
2023-10-11T05:53:27.276Z,95.4
2023-10-11T05:54:57.666Z,95.1
2023-10-11T05:56:28.151Z,95.3
2023-10-11T05:57:58.609Z,95.2
2023-10-11T05:59:29.034Z,95.2
2023-10-11T06:00:59.482Z,95.2
2023-10-11T06:02:29.888Z,95.3
2023-10-11T06:04:00.597Z,95.1
2023-10-11T06:05:31.172Z,95.2
2023-10-11T06:07:01.897Z,95.4
2023-10-11T06:08:32.526Z,95.3
2023-10-11T06:10:03.018Z,95.4
2023-10-11T06:11:33.422Z,95.3
2023-10-11T06:13:03.837Z,95.3
2023-10-11T06:14:34.279Z,95.1
2023-10-11T06:16:04.685Z,95.3
2023-10-11T06:17:35.495Z,95.3
2023-10-11T06:19:05.945Z,95.4
2023-10-11T06:20:36.351Z,95.4
2023-10-11T06:22:06.767Z,95.4
2023-10-11T06:23:37.216Z,95.2
2023-10-11T06:25:07.627Z,95.3
2023-10-11T06:26:38.384Z,95.5
2023-10-11T06:28:09.367Z,95.4
2023-10-11T06:29:39.800Z,95.4
2023-10-11T06:31:10.240Z,95.5
2023-10-11T06:32:40.841Z,95.5
2023-10-11T06:34:11.366Z,95.4
2023-10-11T06:35:41.785Z,95.4
2023-10-11T06:37:12.201Z,95.3
2023-10-11T06:38:43.019Z,95.4
2023-10-11T06:40:13.657Z,95.5
2023-10-11T06:41:44.223Z,95.3
2023-10-11T06:43:14.850Z,95.5
2023-10-11T06:44:45.326Z,95.6
2023-10-11T06:46:15.808Z,95.5
2023-10-11T06:47:46.420Z,95.5
2023-10-11T06:49:17.407Z,95.6
2023-10-11T06:50:48.108Z,95.5
2023-10-11T06:52:18.580Z,95.5
2023-10-11T06:53:49.154Z,95.6
2023-10-11T06:55:19.955Z,95.7
2023-10-11T06:56:50.584Z,95.7
2023-10-11T06:58:21.130Z,95.7
2023-10-11T06:59:51.591Z,95.7
2023-10-11T07:01:22.180Z,95.7
2023-10-11T07:02:52.737Z,95.7
2023-10-11T07:04:23.717Z,95.4
2023-10-11T07:05:54.359Z,95.5
2023-10-11T07:07:24.925Z,95.6
2023-10-11T07:08:55.405Z,95.6
2023-10-11T07:10:25.867Z,95.6
2023-10-11T07:11:56.328Z,95.5
2023-10-11T07:13:26.894Z,95.6
2023-10-11T07:14:57.341Z,95.8
2023-10-11T07:16:27.838Z,95.8
2023-10-11T07:17:58.921Z,95.7
2023-10-11T07:19:29.616Z,95.6
2023-10-11T07:21:00.165Z,95.8
2023-10-11T07:22:30.646Z,95.6
2023-10-11T07:24:01.160Z,95.8
2023-10-11T07:25:31.708Z,95.7
2023-10-11T07:27:02.158Z,95.7
2023-10-11T07:28:32.734Z,95.6
2023-10-11T07:30:03.429Z,95.7
2023-10-11T07:33:23.334Z,95.7
2023-10-11T07:34:54.082Z,95.5
2023-10-11T07:36:29.062Z,95.5
2023-10-11T07:38:00.255Z,95.6
2023-10-11T07:39:30.968Z,95.7
2023-10-11T07:41:01.500Z,95.8
2023-10-11T07:42:32.106Z,95.8
2023-10-11T07:44:02.584Z,95.6
2023-10-11T07:45:33.122Z,95.7
2023-10-11T07:47:03.701Z,95.3
2023-10-11T07:48:34.263Z,95.4
2023-10-11T07:50:04.736Z,95.6
2023-10-11T07:51:35.161Z,95.7
2023-10-11T07:53:05.705Z,95.8
2023-10-11T07:54:37.280Z,95.9
2023-10-11T07:56:10.622Z,95.8
2023-10-11T07:57:41.164Z,95.8
2023-10-11T07:59:11.662Z,95.7
2023-10-11T08:00:42.185Z,95.7
2023-10-11T08:03:26.937Z,95.8
2023-10-11T08:04:57.356Z,95.7
2023-10-11T08:06:28.161Z,95.8
2023-10-11T08:07:58.717Z,95.8
2023-10-11T08:09:29.220Z,95.8
2023-10-11T08:10:59.697Z,95.8
2023-10-11T08:12:31.016Z,96.1
2023-10-11T08:14:02.090Z,96
2023-10-11T08:15:32.806Z,95.9
2023-10-11T08:17:03.495Z,95.8
2023-10-11T08:18:34.018Z,95.9
2023-10-11T08:20:04.657Z,95.8
2023-10-11T08:21:35.236Z,95.9
2023-10-11T08:23:05.730Z,95.8
2023-10-11T08:24:36.254Z,95.7
2023-10-11T08:26:06.807Z,95.8
2023-10-11T08:27:37.648Z,95.8
2023-10-11T08:29:08.180Z,95.8
2023-10-11T08:30:38.692Z,95.8
2023-10-11T08:32:09.337Z,95.7
2023-10-11T08:33:39.825Z,95.8
2023-10-11T08:35:10.288Z,95.8
2023-10-11T08:36:40.770Z,95.8
2023-10-11T08:38:11.221Z,95.8
2023-10-11T08:39:41.653Z,95.7
2023-10-11T08:41:12.081Z,95.7
2023-10-11T08:42:42.577Z,95.6
2023-10-11T08:44:13.250Z,95.6
2023-10-11T08:45:44.091Z,95.7
2023-10-11T08:47:14.662Z,95.8
2023-10-11T08:48:45.253Z,95.8
2023-10-11T08:50:15.704Z,95.8
2023-10-11T08:51:46.130Z,95.8
2023-10-11T08:53:17.617Z,95.8
2023-10-11T08:54:50.664Z,95.8
2023-10-11T08:56:21.092Z,95.9
2023-10-11T08:57:51.607Z,95.8
2023-10-11T08:59:22.017Z,95.8
2023-10-11T09:00:52.441Z,95.9
2023-10-11T09:02:22.883Z,95.9
2023-10-11T09:03:53.577Z,95.8
2023-10-11T09:05:24.741Z,95.7
2023-10-11T09:06:58.540Z,95.7
2023-10-11T09:08:28.957Z,95.8
2023-10-11T09:09:59.443Z,95.7
2023-10-11T09:11:30.373Z,95.7
2023-10-11T09:13:00.824Z,95.8
2023-10-11T09:14:31.239Z,95.8
2023-10-11T09:16:01.699Z,95.7
2023-10-11T09:17:32.222Z,95.7
2023-10-11T09:19:02.829Z,95.7
2023-10-11T09:20:33.327Z,95.7
2023-10-11T09:22:03.778Z,95.6
2023-10-11T09:23:34.273Z,95.8
2023-10-11T09:25:04.686Z,95.6
2023-10-11T09:26:43.405Z,95.7
2023-10-11T09:28:13.825Z,95.7
2023-10-11T09:29:46.876Z,95.9
2023-10-11T09:31:17.737Z,95.9
2023-10-11T09:32:48.319Z,95.8
2023-10-11T09:34:19.156Z,95.8
2023-10-11T09:35:49.728Z,95.8
2023-10-11T09:37:20.133Z,95.9
2023-10-11T09:38:50.556Z,96.1
2023-10-11T09:40:20.993Z,96
2023-10-11T09:41:51.527Z,95.8
2023-10-11T09:43:22.019Z,95.8
2023-10-11T09:44:52.519Z,95.8
2023-10-11T09:46:23.053Z,95.8
2023-10-11T09:47:53.771Z,95.7
2023-10-11T09:49:24.321Z,95.7
2023-10-11T09:50:54.793Z,95.7
2023-10-11T09:52:25.455Z,95.7
2023-10-11T09:54:12.954Z,95.8
2023-10-11T09:55:44.554Z,95.7
2023-10-11T09:57:15.045Z,95.7
2023-10-11T09:58:45.725Z,95.9
2023-10-11T10:00:16.327Z,95.8
2023-10-11T10:01:46.925Z,95.8
2023-10-11T10:03:17.792Z,95.7
2023-10-11T10:04:48.483Z,95.8
2023-10-11T10:06:19.163Z,95.8
2023-10-11T10:07:50.207Z,95.8
2023-10-11T10:09:20.740Z,95.9
2023-10-11T10:10:51.196Z,95.8
2023-10-11T10:12:21.902Z,95.9
2023-10-11T10:13:52.951Z,95.9
2023-10-11T10:15:23.493Z,95.9
2023-10-11T10:16:54.216Z,95.9
2023-10-11T10:18:24.896Z,95.8
2023-10-11T10:19:55.556Z,95.9
2023-10-11T10:21:26.055Z,95.8
2023-10-11T10:22:56.518Z,95.9
2023-10-11T10:24:29.799Z,96
2023-10-11T10:26:00.415Z,95.9
2023-10-11T10:27:31.118Z,95.9
2023-10-11T10:29:01.657Z,96
2023-10-11T10:30:32.180Z,96
2023-10-11T10:32:02.759Z,95.9
2023-10-11T10:33:33.286Z,95.9
2023-10-11T10:35:03.752Z,95.9
2023-10-11T10:36:34.256Z,96
2023-10-11T10:38:04.797Z,96
2023-10-11T10:39:35.299Z,95.9
2023-10-11T10:41:05.762Z,96
2023-10-11T10:42:36.264Z,95.9
2023-10-11T10:44:08.373Z,96.1
2023-10-11T10:45:39.043Z,96
2023-10-11T10:47:09.474Z,95.9
2023-10-11T10:48:39.984Z,96
2023-10-11T10:50:11.034Z,96.1
2023-10-11T10:51:41.577Z,96.1
2023-10-11T10:53:12.073Z,96.1
2023-10-11T10:54:43.571Z,96
2023-10-11T10:56:14.042Z,96.1
2023-10-11T10:57:44.587Z,96.1
2023-10-11T10:59:15.034Z,96.1
2023-10-11T11:00:45.766Z,96.1
2023-10-11T11:02:16.459Z,96.1
2023-10-11T11:03:47.161Z,96.1
2023-10-11T11:05:17.890Z,96.1
2023-10-11T11:06:48.503Z,96.1
2023-10-11T11:08:18.957Z,96.1
2023-10-11T11:11:09.852Z,96.1
2023-10-11T11:12:40.455Z,96.1
2023-10-11T11:14:11.064Z,96
2023-10-11T11:15:41.527Z,96.2
2023-10-11T11:17:12.625Z,96.2
2023-10-11T11:18:43.136Z,96.1
2023-10-11T11:20:13.598Z,96.1
2023-10-11T11:21:44.013Z,96.1
2023-10-11T11:23:14.449Z,96
2023-10-11T11:24:44.977Z,96
2023-10-11T11:26:32.947Z,96.2
2023-10-11T11:28:03.795Z,96.1
2023-10-11T11:29:34.434Z,96
2023-10-11T11:31:04.929Z,96.1
2023-10-11T11:32:35.546Z,96.1
2023-10-11T11:34:06.024Z,96.1
2023-10-11T11:35:36.433Z,96.1
2023-10-11T11:37:15.096Z,96.1
2023-10-11T11:38:46.082Z,96.2
2023-10-11T11:40:16.506Z,96.3
2023-10-11T11:41:46.940Z,96.1
2023-10-11T11:42:06.954Z,96
2023-10-11T11:43:37.418Z,96.1
2023-10-11T11:45:07.967Z,96.2
2023-10-11T11:46:38.536Z,96.2
2023-10-11T11:48:09.304Z,96.2
2023-10-11T11:49:40.020Z,96.2
2023-10-11T11:51:10.514Z,96.3
2023-10-11T11:52:40.966Z,96.2
2023-10-11T11:54:13.705Z,96.1
2023-10-11T11:55:44.276Z,96.2
2023-10-11T11:57:14.977Z,96.2
2023-10-11T11:58:45.859Z,96.2
2023-10-11T12:00:16.422Z,96.1
2023-10-11T12:01:47.993Z,96.2
2023-10-11T12:03:18.722Z,96.3
2023-10-11T12:04:49.950Z,96.3
2023-10-11T12:06:20.753Z,96.3
2023-10-11T12:07:51.224Z,96.1
2023-10-11T12:09:21.672Z,96.3
2023-10-11T12:10:52.704Z,96.3
2023-10-11T12:12:23.241Z,96.4
2023-10-11T12:13:53.826Z,96.3
2023-10-11T12:15:24.417Z,96.4
2023-10-11T12:16:56.059Z,96.3
2023-10-11T12:18:26.781Z,96.3
2023-10-11T12:19:57.345Z,96.3
2023-10-11T12:21:30.813Z,96.4
2023-10-11T12:23:01.483Z,96.4
2023-10-11T12:24:33.529Z,96.3
2023-10-11T12:26:04.551Z,96.4
2023-10-11T12:27:35.107Z,96.4
2023-10-11T12:29:05.637Z,96.4
2023-10-11T12:30:36.446Z,96.4
2023-10-11T12:32:07.184Z,96.4
2023-10-11T12:33:37.751Z,96.4
2023-10-11T12:35:08.373Z,96.5
2023-10-11T12:36:39.315Z,96.5
2023-10-11T12:38:09.862Z,96.4
2023-10-11T12:39:40.387Z,96.4
2023-10-11T12:41:10.822Z,96.4
2023-10-11T12:42:41.430Z,96.5
2023-10-11T12:44:11.987Z,96.5
2023-10-11T12:45:42.565Z,96.5
2023-10-11T12:47:13.456Z,96.4
2023-10-11T12:48:43.941Z,96.4
2023-10-11T12:50:14.560Z,96.5
2023-10-11T12:51:45.089Z,96.6
2023-10-11T12:53:15.701Z,96.6
2023-10-11T12:54:46.177Z,96.6
2023-10-11T12:56:16.660Z,96.6
2023-10-11T12:57:47.167Z,96.5
2023-10-11T12:59:17.634Z,96.6
2023-10-11T13:00:48.294Z,96.6
2023-10-11T13:02:19.144Z,96.6
2023-10-11T13:03:50.014Z,96.6
2023-10-11T13:05:20.712Z,96.6
2023-10-11T13:06:51.442Z,96.7
2023-10-11T13:08:21.856Z,96.6
2023-10-11T13:09:52.603Z,96.7
2023-10-11T13:11:23.111Z,96.7
2023-10-11T13:12:53.631Z,96.6
2023-10-11T13:14:24.184Z,96.7
2023-10-11T13:15:54.701Z,96.7
2023-10-11T13:17:25.394Z,96.7
2023-10-11T13:18:55.910Z,96.7
2023-10-11T13:20:26.442Z,96.7
2023-10-11T13:21:56.857Z,96.7
2023-10-11T13:23:27.402Z,96.7
2023-10-11T13:24:57.799Z,96.7
2023-10-11T13:26:28.441Z,96.7
2023-10-11T13:27:58.986Z,96.7
2023-10-11T13:29:29.471Z,96.7
2023-10-11T13:31:00.007Z,96.7
2023-10-11T13:31:19.169Z,96.7
2023-10-11T13:32:49.737Z,96.8
2023-10-11T13:34:20.534Z,96.8
2023-10-11T13:35:51.026Z,96.7
2023-10-11T13:37:23.966Z,96.7
2023-10-11T13:38:54.422Z,96.7
2023-10-11T13:40:24.848Z,96.8
2023-10-11T13:41:55.313Z,96.7
2023-10-11T13:43:25.831Z,96.8
2023-10-11T13:44:56.413Z,96.8
2023-10-11T13:46:27.142Z,96.8
2023-10-11T13:47:57.732Z,96.8
2023-10-11T13:49:28.359Z,96.8
2023-10-11T13:50:59.023Z,96.8
2023-10-11T13:52:32.561Z,96.8
2023-10-11T13:54:03.087Z,96.7
2023-10-11T13:55:33.655Z,96.8
2023-10-11T13:57:04.528Z,96.8
2023-10-11T13:58:35.005Z,96.8
2023-10-11T14:00:05.666Z,96.8
2023-10-11T14:03:15.627Z,96.8
2023-10-11T14:04:47.027Z,96.9
2023-10-11T14:06:18.116Z,96.8
2023-10-11T14:07:48.564Z,96.9
2023-10-11T14:09:19.387Z,96.8
2023-10-11T14:10:49.871Z,96.9
2023-10-11T14:12:20.518Z,96.9
2023-10-11T14:13:51.033Z,96.9
2023-10-11T14:15:21.551Z,96.9
2023-10-11T14:16:52.171Z,97
2023-10-11T14:18:22.979Z,96.9
2023-10-11T14:19:53.623Z,96.9
2023-10-11T14:21:24.101Z,96.9
2023-10-11T14:22:54.633Z,96.9
2023-10-11T14:24:25.122Z,96.9
2023-10-11T14:25:55.571Z,96.8
2023-10-11T14:27:26.163Z,96.9
2023-10-11T14:28:56.735Z,96.9
2023-10-11T14:30:27.437Z,96.9
2023-10-11T14:31:57.958Z,96.9
2023-10-11T14:33:28.587Z,96.9
2023-10-11T14:34:59.116Z,96.9
2023-10-11T14:36:29.705Z,96.9
2023-10-11T14:38:00.169Z,96.9
2023-10-11T14:39:30.651Z,96.9
2023-10-11T14:41:01.101Z,96.8
2023-10-11T14:42:31.666Z,96.8
2023-10-11T14:44:02.195Z,96.8
2023-10-11T14:45:35.001Z,96.8
2023-10-11T14:47:05.737Z,96.8
2023-10-11T14:48:36.396Z,96.8
2023-10-11T14:50:06.998Z,96.8
2023-10-11T14:51:37.503Z,96.8
2023-10-11T14:53:08.024Z,96.8
2023-10-11T14:54:38.619Z,96.8
2023-10-11T14:56:09.105Z,96.8
2023-10-11T14:57:39.586Z,96.8
2023-10-11T14:59:10.139Z,96.8
2023-10-11T15:00:40.717Z,96.8
2023-10-11T15:02:11.182Z,96.8
2023-10-11T15:03:41.816Z,96.8
2023-10-11T15:05:12.640Z,96.8
2023-10-11T15:06:43.206Z,96.8
2023-10-11T15:08:13.787Z,96.8
2023-10-11T15:09:44.275Z,96.8
2023-10-11T15:11:15.138Z,96.8
2023-10-11T15:12:45.725Z,96.8
2023-10-11T15:14:16.454Z,96.8
2023-10-11T15:15:47.483Z,96.8
2023-10-11T15:17:17.943Z,96.8
2023-10-11T15:18:48.497Z,96.8
2023-10-11T15:20:19.108Z,96.8
2023-10-11T15:21:49.811Z,96.8
2023-10-11T15:23:20.234Z,96.8
2023-10-11T15:24:50.842Z,96.8
2023-10-11T15:26:21.383Z,96.7
2023-10-11T15:27:51.809Z,96.8
2023-10-11T15:29:22.231Z,96.8
2023-10-11T15:30:52.850Z,96.7
2023-10-11T15:32:23.378Z,96.7
2023-10-11T15:33:54.203Z,96.7
2023-10-11T15:35:24.819Z,96.8
2023-10-11T15:36:55.260Z,96.7
2023-10-11T15:38:25.680Z,96.8
2023-10-11T15:39:56.190Z,96.7
2023-10-11T15:41:26.607Z,96.8
2023-10-11T15:42:57.043Z,96.7
2023-10-11T15:44:27.452Z,96.7
2023-10-11T15:45:57.888Z,96.8
2023-10-11T15:47:28.456Z,96.7
2023-10-11T15:48:58.997Z,96.7
2023-10-11T15:50:29.546Z,96.5
2023-10-11T15:52:00.125Z,96.6
2023-10-11T15:52:17.078Z,96.6
2023-10-11T15:53:47.532Z,96.7
2023-10-11T15:55:18.185Z,96.7
2023-10-11T15:56:48.697Z,96.8
2023-10-11T15:58:19.208Z,96.7
2023-10-11T15:59:49.727Z,96.7
2023-10-11T16:01:20.474Z,96.7
2023-10-11T16:02:51.181Z,96.7
2023-10-11T16:04:22.730Z,96.7
2023-10-11T16:05:53.831Z,96.7
2023-10-11T16:07:24.279Z,96.8
2023-10-11T16:08:54.934Z,96.7
2023-10-11T16:10:25.444Z,96.8
2023-10-11T16:11:56.978Z,96.7
2023-10-11T16:13:27.490Z,96.8
2023-10-11T16:14:58.039Z,96.6
2023-10-11T16:16:28.573Z,96.7
2023-10-11T16:17:59.118Z,96.6
2023-10-11T16:19:29.748Z,96.7
2023-10-11T16:21:03.760Z,96.8
2023-10-11T16:22:34.932Z,96.7
2023-10-11T16:24:05.502Z,96.8
2023-10-11T16:25:35.987Z,96.8
2023-10-11T16:27:06.569Z,96.8
2023-10-11T16:28:37.024Z,96.8
2023-10-11T16:30:07.671Z,96.8
2023-10-11T16:31:38.439Z,96.8
2023-10-11T16:33:09.260Z,96.8
2023-10-11T16:34:39.759Z,96.8
2023-10-11T16:36:10.372Z,96.8
2023-10-11T16:37:41.291Z,96.8
2023-10-11T16:39:35.830Z,96.8
2023-10-11T16:41:07.143Z,96.8
2023-10-11T16:42:37.676Z,96.8
2023-10-11T16:44:08.259Z,96.8
2023-10-11T16:45:38.823Z,96.8
2023-10-11T16:47:09.368Z,96.8
2023-10-11T16:48:40.073Z,96.8
2023-10-11T16:50:10.735Z,96.8
2023-10-11T16:51:41.226Z,96.8
2023-10-11T16:53:12.657Z,96.9
2023-10-11T16:54:43.205Z,96.8
2023-10-11T16:56:13.757Z,96.9
2023-10-11T16:57:44.413Z,96.9
2023-10-11T16:59:15.024Z,96.9
2023-10-11T17:00:45.593Z,96.9
2023-10-11T17:02:16.174Z,96.8
2023-10-11T17:03:47.108Z,96.9
2023-10-11T17:05:17.999Z,96.9
2023-10-11T17:06:48.739Z,96.9
2023-10-11T17:08:19.282Z,96.9
2023-10-11T17:09:49.766Z,96.9
2023-10-11T17:11:20.339Z,96.8
2023-10-11T17:12:50.912Z,96.9
2023-10-11T17:14:21.724Z,96.9
2023-10-11T17:15:52.269Z,96.9
2023-10-11T17:17:22.864Z,96.9
2023-10-11T17:18:53.418Z,96.8
2023-10-11T17:20:24.023Z,96.9
2023-10-11T17:21:54.487Z,96.9
2023-10-11T17:23:24.914Z,96.8
2023-10-11T17:24:55.380Z,96.9
2023-10-11T17:26:25.870Z,96.9
2023-10-11T17:27:56.371Z,96.9
2023-10-11T17:29:26.913Z,96.9
2023-10-11T17:30:57.513Z,96.8
2023-10-11T17:32:27.951Z,96.9
2023-10-11T17:33:58.572Z,96.8
2023-10-11T17:35:29.295Z,96.9
2023-10-11T17:36:59.822Z,96.8
2023-10-11T17:38:30.557Z,96.9
2023-10-11T17:40:01.335Z,96.8
2023-10-11T17:41:31.805Z,96.8
2023-10-11T17:41:48.777Z,96.8
2023-10-11T17:43:19.196Z,96.9
2023-10-11T17:44:49.604Z,96.8
2023-10-11T17:46:20.093Z,96.9
2023-10-11T17:47:50.647Z,96.9
2023-10-11T17:49:21.177Z,96.8
2023-10-11T17:50:51.621Z,96.9
2023-10-11T17:52:22.006Z,96.9
2023-10-11T17:53:52.447Z,96.8
2023-10-11T17:55:22.855Z,96.8
2023-10-11T17:56:53.273Z,96.8
2023-10-11T17:58:23.706Z,96.8
2023-10-11T17:59:54.218Z,96.8
2023-10-11T18:01:24.721Z,96.8
2023-10-11T18:02:55.231Z,96.8
2023-10-11T18:04:25.886Z,96.8
2023-10-11T18:05:56.752Z,96.8
2023-10-11T18:07:27.300Z,96.8
2023-10-11T18:08:57.763Z,96.8
2023-10-11T18:10:28.186Z,96.8
2023-10-11T18:11:58.622Z,96.9
2023-10-11T18:13:29.132Z,96.8
2023-10-11T18:14:59.560Z,96.7
2023-10-11T18:16:29.986Z,96.8
2023-10-11T18:18:00.560Z,96.8
2023-10-11T18:19:31.139Z,96.8
2023-10-11T18:21:01.722Z,96.9
2023-10-11T18:22:32.154Z,96.8
2023-10-11T18:24:02.575Z,96.8
2023-10-11T18:25:33.251Z,96.7
2023-10-11T18:27:03.733Z,96.8
2023-10-11T18:28:34.149Z,96.7
2023-10-11T18:30:04.599Z,96.8
2023-10-11T18:31:35.136Z,96.8
2023-10-11T18:33:05.787Z,96.7
2023-10-11T18:34:36.270Z,96.7
2023-10-11T18:36:06.726Z,96.8
2023-10-11T18:37:37.178Z,96.7
2023-10-11T18:39:07.598Z,96.7
2023-10-11T18:40:38.258Z,96.7
2023-10-11T18:42:08.670Z,96.7
2023-10-11T18:43:39.221Z,96.8
2023-10-11T18:45:09.739Z,96.8
2023-10-11T18:46:40.434Z,96.8
2023-10-11T18:48:11.063Z,96.8
2023-10-11T18:49:41.677Z,96.8
2023-10-11T18:51:12.172Z,96.9
2023-10-11T18:52:42.715Z,96.9
2023-10-11T18:54:13.218Z,96.8
2023-10-11T18:55:43.761Z,96.8
2023-10-11T18:57:14.245Z,96.8
2023-10-11T18:58:44.722Z,96.7
2023-10-11T19:00:15.141Z,96.8
2023-10-11T19:01:45.594Z,96.8
2023-10-11T19:03:16.392Z,96.8
2023-10-11T19:04:47.260Z,96.7
2023-10-11T19:06:17.828Z,96.8
2023-10-11T19:07:48.365Z,96.8
2023-10-11T19:09:18.879Z,96.8
2023-10-11T19:10:49.391Z,96.9
2023-10-11T19:12:19.872Z,96.8
2023-10-11T19:13:50.439Z,96.7
2023-10-11T19:15:21.025Z,96.7
2023-10-11T19:16:51.665Z,96.8
2023-10-11T19:18:22.165Z,96.7
2023-10-11T19:19:52.633Z,96.9
2023-10-11T19:21:23.585Z,96.9
2023-10-11T19:22:54.236Z,96.9
2023-10-11T19:24:24.760Z,96.9
2023-10-11T19:25:55.366Z,96.9
2023-10-11T19:27:25.943Z,97
2023-10-11T19:29:00.277Z,97.2
2023-10-11T19:30:30.966Z,97.1
2023-10-11T19:33:48.799Z,96.9
2023-10-11T19:35:19.613Z,96.3
2023-10-11T19:36:50.271Z,96.2
2023-10-11T19:38:20.812Z,96.2
2023-10-11T19:39:51.613Z,96.2
2023-10-11T19:41:24.649Z,95.7
2023-10-11T19:42:55.612Z,95.9
2023-10-11T19:44:29.888Z,96
2023-10-11T19:46:00.289Z,96.1
2023-10-11T19:47:30.769Z,96.1
2023-10-11T19:49:01.309Z,96.1
2023-10-11T19:50:31.959Z,96
2023-10-11T19:52:02.511Z,95.8
2023-10-11T19:53:33.021Z,96
2023-10-11T19:55:03.448Z,95.9
2023-10-11T19:56:33.945Z,96
2023-10-11T19:58:04.365Z,96
2023-10-11T19:59:34.900Z,96.2
2023-10-11T20:01:05.445Z,96.2
2023-10-11T20:02:36.053Z,96.1
2023-10-11T20:04:06.581Z,95.7
2023-10-11T20:05:36.976Z,95.7
2023-10-11T20:07:07.428Z,95.7
2023-10-11T20:08:37.935Z,95.8
2023-10-11T20:10:08.362Z,96
2023-10-11T20:11:38.816Z,96.2
2023-10-11T20:13:09.306Z,96.3
2023-10-11T20:14:39.705Z,96.4